Time;durP1;ratioP1;P1;durP2;ratioP2;P2;SDS_P1;SDS_P2;PMS_P1;PMS_P2;Temp;Humidity;BMP_temperature;BMP_pressure;BME280_temperature;BME280_humidity;BME280_pressure;Samples;Min_cycle;Max_cycle;Signal;HPM_P1;HPM_P2
2023/07/16 00:00:50;;;;;;;7.93;2.88;;;24.20;99.90;;;;;;4920537;29;20218;-71
2023/07/16 00:03:16;;;;;;;3.58;3.28;;;24.10;99.90;;;;;;4984019;28;20731;-71
2023/07/16 00:05:41;;;;;;;7.35;2.85;;;24.20;99.90;;;;;;4923774;29;20244;-71
2023/07/16 00:08:07;;;;;;;3.03;2.72;;;24.10;99.90;;;;;;4913151;28;20237;-69
2023/07/16 00:10:36;;;;;;;3.60;3.17;;;24.20;99.90;;;;;;4916914;29;20538;-69
2023/07/16 00:13:03;;;;;;;3.08;2.85;;;24.30;99.90;;;;;;4916279;28;20304;-71
2023/07/16 00:15:29;;;;;;;5.15;3.50;;;24.30;99.90;;;;;;4912387;28;20556;-69
2023/07/16 00:17:55;;;;;;;4.63;2.97;;;24.40;99.90;;;;;;4915622;28;20203;-72
2023/07/16 00:20:23;;;;;;;4.05;3.47;;;24.40;99.90;;;;;;4912082;29;20195;-68
2023/07/16 00:22:48;;;;;;;4.45;3.38;;;24.40;99.90;;;;;;4962091;28;20202;-70
2023/07/16 00:25:17;;;;;;;5.57;3.80;;;24.40;99.90;;;;;;4925064;29;20786;-70
2023/07/16 00:27:43;;;;;;;3.30;3.00;;;24.40;99.90;;;;;;4912330;29;20215;-70
2023/07/16 00:30:09;;;;;;;3.38;3.08;;;24.40;99.90;;;;;;4917263;29;20206;-72
2023/07/16 00:32:34;;;;;;;7.70;3.40;;;24.40;99.90;;;;;;4917399;28;20327;-71
2023/07/16 00:35:01;;;;;;;5.45;3.38;;;24.30;99.90;;;;;;4917684;28;20293;-71
2023/07/16 00:37:27;;;;;;;5.32;4.07;;;24.30;99.90;;;;;;4908927;28;20214;-72
2023/07/16 00:39:52;;;;;;;5.22;3.42;;;24.30;99.90;;;;;;4911160;29;20282;-70
2023/07/16 00:42:18;;;;;;;4.28;3.33;;;24.30;99.90;;;;;;4912087;29;20218;-71
2023/07/16 00:44:44;;;;;;;4.40;3.35;;;24.30;99.90;;;;;;4911630;29;20927;-71
2023/07/16 00:47:09;;;;;;;3.88;3.22;;;24.30;99.90;;;;;;4925794;28;20222;-71
2023/07/16 00:49:36;;;;;;;4.07;3.28;;;24.20;99.90;;;;;;4929972;28;20206;-71
2023/07/16 00:52:03;;;;;;;3.50;3.20;;;24.20;99.90;;;;;;4927239;28;20199;-72
2023/07/16 00:54:30;;;;;;;4.87;4.03;;;24.20;99.90;;;;;;4926726;29;20241;-71
2023/07/16 00:56:56;;;;;;;3.43;3.13;;;24.10;99.90;;;;;;4926290;29;20199;-69
2023/07/16 00:59:22;;;;;;;3.78;3.47;;;24.00;99.90;;;;;;4917821;28;20207;-69
2023/07/16 01:01:47;;;;;;;3.77;3.50;;;23.90;99.90;;;;;;4911651;29;20225;-69
2023/07/16 01:04:13;;;;;;;3.77;3.47;;;23.80;99.90;;;;;;4913124;29;20298;-69
2023/07/16 01:06:42;;;;;;;3.40;3.20;;;23.70;99.90;;;;;;4918548;28;20207;-70
2023/07/16 01:09:13;;;;;;;5.03;3.58;;;23.70;99.90;;;;;;4912637;28;20233;-69
2023/07/16 01:11:40;;;;;;;3.45;3.15;;;23.60;99.90;;;;;;4920586;28;20294;-70
2023/07/16 01:14:06;;;;;;;4.60;3.63;;;23.60;99.90;;;;;;4919082;28;20711;-70
2023/07/16 01:16:32;;;;;;;3.97;3.67;;;23.60;99.90;;;;;;4916495;28;20209;-69
2023/07/16 01:18:58;;;;;;;3.87;3.17;;;23.50;99.90;;;;;;4918865;29;20253;-70
2023/07/16 01:21:26;;;;;;;4.10;3.80;;;23.50;99.90;;;;;;4919821;28;20226;-68
2023/07/16 01:24:03;;;;;;;4.07;3.77;;;23.50;99.90;;;;;;4916397;28;20205;-75
2023/07/16 01:26:47;;;;;;;3.30;3.05;;;23.50;99.90;;;;;;4929223;28;20214;-75
2023/07/16 01:29:31;;;;;;;3.38;3.10;;;23.60;99.90;;;;;;4922608;28;20211;-71
2023/07/16 01:32:03;;;;;;;5.45;3.72;;;23.70;99.90;;;;;;4921100;28;20203;-74
2023/07/16 01:34:33;;;;;;;3.50;3.20;;;23.70;99.90;;;;;;4928844;28;20749;-86
2023/07/16 01:37:00;;;;;;;3.80;3.50;;;23.60;99.90;;;;;;4924887;28;20288;-74
2023/07/16 01:39:25;;;;;;;3.90;3.50;;;23.50;99.90;;;;;;4925903;28;20218;-71
2023/07/16 01:41:51;;;;;;;4.57;3.30;;;23.30;99.90;;;;;;4914726;28;20202;-72
2023/07/16 01:44:17;;;;;;;3.60;3.23;;;23.20;99.90;;;;;;4916970;29;20211;-67
2023/07/16 01:46:42;;;;;;;4.00;3.70;;;23.20;99.90;;;;;;4913533;29;20297;-66
2023/07/16 01:49:07;;;;;;;4.17;3.80;;;23.20;99.90;;;;;;4916449;28;20204;-67
2023/07/16 01:51:33;;;;;;;3.83;3.53;;;23.20;99.90;;;;;;4919067;28;20206;-66
2023/07/16 01:53:58;;;;;;;4.50;3.90;;;23.10;99.90;;;;;;4918971;28;20195;-67
2023/07/16 01:56:24;;;;;;;5.50;3.37;;;23.10;99.90;;;;;;4926644;28;20222;-67
2023/07/16 01:58:50;;;;;;;3.93;3.43;;;23.10;99.90;;;;;;4918956;28;20752;-67
2023/07/16 02:01:15;;;;;;;3.77;3.47;;;23.10;99.90;;;;;;4925355;29;20232;-66
2023/07/16 02:03:41;;;;;;;5.77;4.03;;;23.00;99.90;;;;;;4926103;29;21081;-66
2023/07/16 02:06:06;;;;;;;5.40;3.50;;;22.90;99.90;;;;;;4925977;29;20729;-67
2023/07/16 02:08:32;;;;;;;4.97;3.93;;;22.90;99.90;;;;;;4922494;28;20247;-66
2023/07/16 02:10:57;;;;;;;5.00;4.60;;;22.90;99.90;;;;;;4924770;28;20249;-67
2023/07/16 02:13:23;;;;;;;4.45;3.95;;;22.90;99.90;;;;;;4927543;28;20199;-66
2023/07/16 02:15:48;;;;;;;3.03;2.83;;;22.80;99.90;;;;;;4925637;29;20990;-66
2023/07/16 02:18:14;;;;;;;3.35;3.10;;;22.80;99.90;;;;;;4925758;29;20211;-66
2023/07/16 02:20:39;;;;;;;3.80;3.40;;;22.70;99.90;;;;;;4927601;29;20835;-66
2023/07/16 02:23:05;;;;;;;4.43;3.00;;;22.70;99.90;;;;;;4917224;29;20299;-66
2023/07/16 02:25:32;;;;;;;3.93;3.40;;;22.60;99.90;;;;;;4920433;29;20265;-66
2023/07/16 02:27:57;;;;;;;5.07;4.00;;;22.10;99.90;;;;;;4921144;29;20210;-66
2023/07/16 02:30:23;;;;;;;7.00;3.70;;;21.70;99.90;;;;;;4925177;29;20191;-65
2023/07/16 02:32:48;;;;;;;8.90;4.07;;;21.50;99.90;;;;;;4921461;29;20202;-65
2023/07/16 02:35:15;;;;;;;6.03;4.70;;;21.40;99.90;;;;;;4925630;29;20203;-66
2023/07/16 02:37:40;;;;;;;5.40;4.20;;;21.40;99.90;;;;;;4924043;28;20249;-66
2023/07/16 02:40:07;;;;;;;4.03;3.60;;;21.30;99.90;;;;;;4924595;29;20238;-66
2023/07/16 02:42:32;;;;;;;4.53;3.90;;;21.40;99.90;;;;;;4926427;29;20294;-66
2023/07/16 02:44:58;;;;;;;5.03;4.00;;;21.60;99.90;;;;;;4918359;29;20292;-66
2023/07/16 02:47:23;;;;;;;3.73;3.43;;;21.60;99.90;;;;;;4935947;28;20728;-65
2023/07/16 02:49:52;;;;;;;3.77;3.47;;;21.70;99.90;;;;;;4926606;29;20207;-65
2023/07/16 02:52:17;;;;;;;3.57;3.27;;;21.70;99.90;;;;;;4925482;28;21967;-65
2023/07/16 02:54:42;;;;;;;3.67;3.37;;;21.80;99.90;;;;;;4916107;29;20276;-66
2023/07/16 02:57:08;;;;;;;5.40;3.80;;;21.80;99.90;;;;;;4917675;29;20434;-69
2023/07/16 02:59:33;;;;;;;5.57;4.27;;;21.80;99.90;;;;;;4926537;28;20321;-72
2023/07/16 03:01:59;;;;;;;4.43;3.97;;;21.70;99.90;;;;;;4911690;29;20198;-80
2023/07/16 03:04:24;;;;;;;4.33;4.00;;;21.70;99.90;;;;;;4915804;29;20574;-79
2023/07/16 03:06:50;;;;;;;3.53;3.23;;;21.80;99.90;;;;;;4928542;28;20478;-65
2023/07/16 03:09:15;;;;;;;4.87;3.50;;;21.90;99.90;;;;;;4913790;29;20268;-69
2023/07/16 03:11:41;;;;;;;4.83;4.23;;;21.90;99.90;;;;;;4917319;29;20281;-68
2023/07/16 03:14:06;;;;;;;3.97;3.30;;;21.90;99.90;;;;;;4915481;29;20365;-68
2023/07/16 03:16:32;;;;;;;3.73;3.43;;;21.90;99.90;;;;;;4908311;29;20673;-67
2023/07/16 03:18:57;;;;;;;5.20;3.30;;;21.90;99.90;;;;;;4924021;28;20222;-67
2023/07/16 03:21:23;;;;;;;3.87;3.57;;;21.90;99.90;;;;;;4937941;28;20298;-67
2023/07/16 03:23:48;;;;;;;4.53;3.70;;;21.90;99.90;;;;;;4922269;28;20590;-66
2023/07/16 03:26:14;;;;;;;4.97;3.13;;;22.00;99.90;;;;;;4934495;28;20679;-66
2023/07/16 03:28:39;;;;;;;5.40;4.07;;;22.00;99.90;;;;;;4920087;29;20286;-66
2023/07/16 03:31:05;;;;;;;6.27;4.73;;;22.00;99.90;;;;;;4920717;29;20747;-66
2023/07/16 03:33:30;;;;;;;4.57;4.00;;;22.00;99.90;;;;;;4923793;28;20202;-66
2023/07/16 03:35:56;;;;;;;4.50;4.10;;;21.90;99.90;;;;;;4925561;28;20730;-67
2023/07/16 03:38:21;;;;;;;4.10;3.70;;;21.80;99.90;;;;;;4922140;28;20251;-66
2023/07/16 03:40:49;;;;;;;4.40;4.00;;;21.80;99.90;;;;;;4913262;29;20207;-67
2023/07/16 03:43:15;;;;;;;4.93;3.83;;;21.80;99.90;;;;;;4926697;29;20260;-67
2023/07/16 03:45:41;;;;;;;3.60;3.30;;;21.70;99.90;;;;;;4924030;28;20235;-67
2023/07/16 03:48:06;;;;;;;3.47;3.17;;;21.70;99.90;;;;;;4916697;29;20237;-66
2023/07/16 03:50:32;;;;;;;3.90;3.00;;;21.70;99.90;;;;;;4916732;29;20278;-67
2023/07/16 03:52:58;;;;;;;4.10;2.70;;;21.70;99.90;;;;;;4915365;29;20207;-67
2023/07/16 03:55:24;;;;;;;4.03;3.30;;;21.70;99.90;;;;;;4913279;28;20259;-67
2023/07/16 03:57:49;;;;;;;3.90;3.50;;;21.70;99.90;;;;;;4915647;29;20203;-69
2023/07/16 04:00:15;;;;;;;4.53;3.20;;;21.60;99.90;;;;;;4971616;28;21004;-70
2023/07/16 04:02:41;;;;;;;2.97;2.77;;;21.60;99.90;;;;;;4914292;29;20206;-68
2023/07/16 04:05:07;;;;;;;3.37;3.03;;;21.60;99.90;;;;;;4916232;29;20211;-68
2023/07/16 04:07:32;;;;;;;5.10;3.23;;;21.50;99.90;;;;;;4921313;28;20225;-68
2023/07/16 04:09:58;;;;;;;3.20;3.00;;;21.60;99.90;;;;;;4918821;28;20240;-68
2023/07/16 04:12:23;;;;;;;3.30;2.77;;;21.50;99.90;;;;;;4932122;28;20226;-69
2023/07/16 04:14:49;;;;;;;4.10;3.57;;;21.60;99.90;;;;;;4929324;29;20723;-69
2023/07/16 04:17:14;;;;;;;3.47;2.90;;;21.60;99.90;;;;;;4917872;29;20567;-69
2023/07/16 04:19:40;;;;;;;3.50;3.20;;;21.60;99.90;;;;;;4917318;29;20336;-69
2023/07/16 04:22:05;;;;;;;4.60;3.07;;;21.60;99.90;;;;;;4913418;28;20281;-68
2023/07/16 04:24:31;;;;;;;3.83;3.53;;;21.70;99.90;;;;;;4923130;28;21001;-71
2023/07/16 04:26:58;;;;;;;2.93;2.73;;;21.70;99.90;;;;;;4916585;29;20257;-69
2023/07/16 04:29:24;;;;;;;3.33;3.13;;;21.70;99.90;;;;;;4927091;28;20205;-71
2023/07/16 04:31:49;;;;;;;3.70;3.30;;;21.70;99.90;;;;;;4989217;28;20695;-71
2023/07/16 04:34:15;;;;;;;3.20;2.90;;;21.70;99.90;;;;;;4926420;29;20202;-70
2023/07/16 04:36:42;;;;;;;3.50;2.90;;;21.60;99.90;;;;;;4926171;28;20206;-73
2023/07/16 04:39:07;;;;;;;3.40;3.10;;;21.60;99.90;;;;;;4928269;28;20264;-74
2023/07/16 04:41:33;;;;;;;4.90;3.30;;;21.50;99.90;;;;;;4923520;28;20211;-73
2023/07/16 04:43:58;;;;;;;3.77;3.37;;;21.50;99.90;;;;;;4921762;28;20210;-72
2023/07/16 04:46:24;;;;;;;3.80;3.23;;;21.50;99.90;;;;;;4922052;28;20219;-72
2023/07/16 04:48:49;;;;;;;4.10;3.70;;;21.40;99.90;;;;;;4924569;28;20278;-73
2023/07/16 04:51:15;;;;;;;3.93;3.20;;;21.40;99.90;;;;;;4924631;28;20207;-73
2023/07/16 04:53:40;;;;;;;3.93;2.97;;;21.40;99.90;;;;;;4924846;28;20263;-74
2023/07/16 04:56:12;;;;;;;3.77;3.47;;;21.30;99.90;;;;;;4939552;28;20220;-73
2023/07/16 04:58:38;;;;;;;3.80;3.33;;;21.30;99.90;;;;;;4925863;28;20339;-77
2023/07/16 05:01:03;;;;;;;3.43;3.13;;;21.20;99.90;;;;;;4923922;29;20730;-66
2023/07/16 05:03:29;;;;;;;3.70;3.13;;;21.20;99.90;;;;;;4923665;29;20811;-67
2023/07/16 05:05:54;;;;;;;6.97;3.53;;;21.30;99.90;;;;;;4923205;28;20695;-67
2023/07/16 05:08:20;;;;;;;6.27;3.60;;;21.30;99.90;;;;;;4921372;28;20222;-68
2023/07/16 05:10:45;;;;;;;4.67;4.03;;;21.30;99.90;;;;;;4925683;29;20201;-68
2023/07/16 05:13:11;;;;;;;4.13;3.83;;;21.30;99.90;;;;;;4924089;29;20198;-67
2023/07/16 05:15:37;;;;;;;3.50;3.20;;;21.30;99.90;;;;;;4921157;28;20198;-66
2023/07/16 05:18:03;;;;;;;3.90;3.60;;;21.30;99.90;;;;;;4927602;28;20664;-66
2023/07/16 05:20:28;;;;;;;3.77;3.47;;;21.40;99.90;;;;;;4927906;29;20216;-63
2023/07/16 05:22:54;;;;;;;3.70;3.40;;;21.40;99.90;;;;;;4924377;29;20202;-65
2023/07/16 05:25:19;;;;;;;4.13;3.83;;;21.40;99.90;;;;;;4930319;29;20206;-66
2023/07/16 05:27:45;;;;;;;5.50;4.00;;;21.40;99.90;;;;;;4927507;29;20220;-67
2023/07/16 05:30:10;;;;;;;4.03;3.73;;;21.40;99.90;;;;;;4926872;29;20202;-67
2023/07/16 05:32:36;;;;;;;5.40;3.90;;;21.40;99.90;;;;;;4924389;29;20607;-67
2023/07/16 05:35:01;;;;;;;4.73;3.77;;;21.40;99.90;;;;;;4925794;29;20206;-67
2023/07/16 05:37:27;;;;;;;4.37;4.07;;;21.50;99.90;;;;;;4921817;28;20299;-67
2023/07/16 05:39:52;;;;;;;4.20;3.67;;;21.40;99.90;;;;;;4922750;29;20216;-67
2023/07/16 05:42:18;;;;;;;4.17;3.77;;;21.40;99.90;;;;;;4924033;29;20641;-67
2023/07/16 05:44:45;;;;;;;4.20;3.90;;;21.40;99.90;;;;;;4920638;28;20287;-68
2023/07/16 05:47:10;;;;;;;5.63;4.77;;;21.40;99.90;;;;;;4918451;28;20227;-68
2023/07/16 05:49:36;;;;;;;4.43;4.07;;;21.30;99.90;;;;;;4918621;28;20551;-69
2023/07/16 05:52:01;;;;;;;4.90;4.50;;;21.30;99.90;;;;;;4927177;28;20194;-69
2023/07/16 05:54:27;;;;;;;4.30;3.57;;;21.20;99.90;;;;;;4918702;28;20707;-69
2023/07/16 05:56:53;;;;;;;4.33;3.93;;;21.30;99.90;;;;;;4918546;28;20785;-69
2023/07/16 05:59:18;;;;;;;4.50;3.53;;;21.30;99.90;;;;;;4924491;28;20213;-69
2023/07/16 06:01:44;;;;;;;5.23;4.43;;;21.40;99.90;;;;;;4922679;28;20195;-68
2023/07/16 06:04:09;;;;;;;4.97;4.67;;;21.50;99.90;;;;;;4925320;29;20293;-68
2023/07/16 06:06:35;;;;;;;5.37;4.80;;;21.60;99.90;;;;;;4930124;28;20214;-68
2023/07/16 06:09:00;;;;;;;6.83;4.33;;;21.60;99.90;;;;;;4892944;28;992089;-68
2023/07/16 06:11:26;;;;;;;8.23;3.77;;;21.60;99.90;;;;;;4926006;29;20218;-65
2023/07/16 06:13:54;;;;;;;3.97;3.53;;;21.80;99.90;;;;;;4924621;29;20199;-68
2023/07/16 06:16:20;;;;;;;5.10;3.87;;;21.80;99.90;;;;;;4921223;28;20279;-75
2023/07/16 06:18:45;;;;;;;3.60;3.30;;;21.80;99.90;;;;;;4918996;28;20246;-76
2023/07/16 06:21:10;;;;;;;5.33;4.00;;;22.00;99.90;;;;;;4928349;28;20736;-76
2023/07/16 06:23:36;;;;;;;3.60;3.30;;;22.10;99.90;;;;;;4919652;28;20199;-76
2023/07/16 06:26:02;;;;;;;4.40;4.00;;;22.20;99.90;;;;;;4937834;29;21119;-76
2023/07/16 06:28:27;;;;;;;5.77;3.40;;;22.20;99.90;;;;;;4928681;28;20202;-76
2023/07/16 06:30:53;;;;;;;4.57;4.03;;;22.30;99.90;;;;;;4934747;28;20184;-77
2023/07/16 06:33:19;;;;;;;3.40;3.20;;;22.40;99.90;;;;;;4924286;29;20233;-74
2023/07/16 06:35:48;;;;;;;3.72;3.28;;;22.50;99.90;;;;;;4917793;28;20180;-81
2023/07/16 06:38:14;;;;;;;3.73;3.43;;;22.60;99.90;;;;;;4914961;29;20199;-73
2023/07/16 06:40:45;;;;;;;3.20;3.00;;;22.70;99.90;;;;;;4924073;28;20187;-80
2023/07/16 06:43:10;;;;;;;3.53;3.23;;;22.70;99.90;;;;;;4927416;28;20265;-79
2023/07/16 06:45:36;;;;;;;3.25;2.95;;;22.70;99.90;;;;;;4935830;28;20202;-78
2023/07/16 06:48:01;;;;;;;3.85;3.25;;;22.70;99.90;;;;;;4927707;28;20195;-75
2023/07/16 06:50:27;;;;;;;3.40;3.10;;;22.80;99.90;;;;;;4918253;28;20203;-74
2023/07/16 06:52:52;;;;;;;3.85;3.17;;;22.90;99.90;;;;;;4916249;28;20202;-74
2023/07/16 06:55:18;;;;;;;3.03;2.77;;;22.90;99.90;;;;;;4929174;29;20207;-75
2023/07/16 06:57:43;;;;;;;4.33;3.20;;;23.00;99.90;;;;;;4929376;28;20202;-80
2023/07/16 07:00:11;;;;;;;5.23;3.23;;;22.90;99.90;;;;;;4984429;28;20628;-77
2023/07/16 07:02:37;;;;;;;5.03;3.07;;;23.00;99.90;;;;;;4919896;29;20211;-78
2023/07/16 07:05:02;;;;;;;4.25;3.17;;;23.10;99.90;;;;;;4919443;28;20210;-79
2023/07/16 07:07:28;;;;;;;3.28;2.97;;;22.90;99.90;;;;;;4911633;28;20214;-77
2023/07/16 07:09:53;;;;;;;3.40;3.10;;;22.90;99.90;;;;;;4915103;29;20767;-78
2023/07/16 07:12:19;;;;;;;3.30;3.10;;;23.10;99.90;;;;;;4919529;28;20237;-73
2023/07/16 07:14:47;;;;;;;3.35;3.15;;;23.30;99.90;;;;;;4919542;28;20207;-74
2023/07/16 07:17:12;;;;;;;3.80;3.30;;;23.40;99.90;;;;;;4920157;29;20599;-76
2023/07/16 07:19:37;;;;;;;3.67;3.37;;;23.40;99.90;;;;;;4926890;28;20214;-76
2023/07/16 07:22:03;;;;;;;4.50;3.30;;;23.50;99.90;;;;;;4925849;29;20218;-75
2023/07/16 07:24:29;;;;;;;6.53;3.20;;;23.50;99.90;;;;;;4920463;29;20206;-75
2023/07/16 07:26:54;;;;;;;11.90;3.45;;;23.60;99.90;;;;;;4918196;28;20268;-69
2023/07/16 07:29:20;;;;;;;3.85;2.85;;;23.70;99.90;;;;;;4957795;28;20914;-69
2023/07/16 07:31:45;;;;;;;2.53;2.33;;;23.90;99.90;;;;;;4926775;28;20209;-68
2023/07/16 07:34:10;;;;;;;3.42;3.13;;;24.00;99.90;;;;;;4920993;28;20694;-66
2023/07/16 07:36:36;;;;;;;3.13;2.78;;;24.00;99.90;;;;;;4919279;28;20205;-74
2023/07/16 07:39:01;;;;;;;3.75;3.45;;;23.70;99.90;;;;;;4927631;28;20688;-74
2023/07/16 07:41:27;;;;;;;3.00;2.80;;;23.70;99.90;;;;;;4920781;28;20292;-72
2023/07/16 07:43:52;;;;;;;4.18;2.90;;;23.70;99.90;;;;;;4917397;29;20201;-69
2023/07/16 07:46:18;;;;;;;5.45;3.35;;;23.40;99.90;;;;;;4920133;29;20228;-72
2023/07/16 07:48:43;;;;;;;4.40;2.85;;;23.40;99.90;;;;;;4923469;28;20545;-72
2023/07/16 07:51:09;;;;;;;3.42;2.80;;;23.40;99.90;;;;;;4924608;28;20202;-72
2023/07/16 07:53:34;;;;;;;6.63;2.27;;;23.30;99.90;;;;;;4924014;28;20201;-73
2023/07/16 07:56:00;;;;;;;3.17;2.42;;;23.30;99.90;;;;;;4919191;28;20243;-73
2023/07/16 07:58:25;;;;;;;4.43;2.53;;;23.30;99.90;;;;;;4914886;28;20227;-69
2023/07/16 08:00:51;;;;;;;4.78;2.47;;;23.40;99.90;;;;;;4921454;29;20201;-72
2023/07/16 08:03:16;;;;;;;2.70;2.50;;;23.40;99.90;;;;;;4925518;29;20201;-69
2023/07/16 08:05:42;;;;;;;5.20;2.27;;;23.50;99.90;;;;;;4919726;29;20290;-72
2023/07/16 08:08:07;;;;;;;2.38;2.25;;;23.40;99.90;;;;;;4924706;28;20709;-75
2023/07/16 08:10:33;;;;;;;3.72;2.65;;;23.30;99.90;;;;;;4920498;28;20199;-71
2023/07/16 08:12:59;;;;;;;4.18;2.53;;;23.20;99.90;;;;;;4923224;28;20605;-72
2023/07/16 08:15:25;;;;;;;2.15;1.75;;;23.30;99.90;;;;;;4924411;29;20211;-71
2023/07/16 08:17:50;;;;;;;2.35;2.15;;;23.30;99.90;;;;;;4921063;29;20241;-71
2023/07/16 08:20:16;;;;;;;4.13;2.30;;;23.50;99.90;;;;;;4921570;29;20199;-68
2023/07/16 08:22:44;;;;;;;3.10;1.90;;;23.50;99.90;;;;;;4924341;29;20206;-73
2023/07/16 08:25:09;;;;;;;3.30;2.57;;;23.70;99.90;;;;;;4916570;28;20672;-73
2023/07/16 08:27:35;;;;;;;2.40;2.20;;;23.80;99.90;;;;;;4925578;28;20614;-71
2023/07/16 08:30:00;;;;;;;2.20;2.00;;;23.70;99.90;;;;;;4923378;28;20230;-72
2023/07/16 08:32:26;;;;;;;2.95;2.33;;;24.00;99.90;;;;;;4921652;28;20248;-72
2023/07/16 08:34:52;;;;;;;2.53;2.28;;;23.90;99.90;;;;;;4923163;28;20199;-72
2023/07/16 08:37:17;;;;;;;5.22;2.60;;;24.00;99.90;;;;;;4915259;29;20238;-71
2023/07/16 08:39:43;;;;;;;2.50;2.30;;;24.00;99.90;;;;;;4913360;28;20609;-73
2023/07/16 08:42:10;;;;;;;3.90;2.47;;;24.10;99.90;;;;;;4921407;29;20208;-71
2023/07/16 08:44:37;;;;;;;3.05;2.20;;;24.10;99.90;;;;;;4914593;28;20576;-69
2023/07/16 08:47:03;;;;;;;3.35;2.47;;;24.20;99.90;;;;;;4925940;29;20301;-72
2023/07/16 08:49:30;;;;;;;2.85;2.13;;;24.10;99.90;;;;;;4905373;28;20294;-73
2023/07/16 08:51:56;;;;;;;2.30;2.10;;;24.10;99.90;;;;;;4917516;28;20206;-71
2023/07/16 08:54:22;;;;;;;2.65;2.20;;;24.30;99.90;;;;;;4917918;28;20200;-71
2023/07/16 08:56:48;;;;;;;2.50;2.17;;;24.50;99.90;;;;;;4911248;28;20204;-66
2023/07/16 08:59:18;;;;;;;2.20;2.00;;;24.50;99.90;;;;;;4917946;28;20215;-75
2023/07/16 09:01:45;;;;;;;2.63;2.42;;;24.40;99.90;;;;;;4918506;28;20201;-74
2023/07/16 09:04:11;;;;;;;2.88;2.17;;;24.40;99.90;;;;;;4922486;28;20210;-73
2023/07/16 09:06:36;;;;;;;4.70;2.55;;;24.40;99.90;;;;;;4919401;28;20226;-74
2023/07/16 09:09:02;;;;;;;5.65;2.20;;;24.50;99.90;;;;;;4924484;28;20227;-72
2023/07/16 09:11:27;;;;;;;2.33;2.13;;;24.50;99.90;;;;;;4918405;28;20204;-76
2023/07/16 09:13:53;;;;;;;2.92;1.90;;;24.40;99.90;;;;;;4988124;28;20327;-76
2023/07/16 09:16:20;;;;;;;2.20;2.00;;;24.30;99.90;;;;;;4920858;29;20204;-72
2023/07/16 09:18:46;;;;;;;1.83;1.67;;;24.40;99.90;;;;;;4925062;28;20990;-71
2023/07/16 09:21:11;;;;;;;2.58;2.08;;;24.50;99.90;;;;;;4920965;29;20233;-72
2023/07/16 09:23:37;;;;;;;2.65;1.42;;;24.50;99.90;;;;;;4920240;28;20226;-72
2023/07/16 09:26:06;;;;;;;1.92;1.70;;;24.50;99.90;;;;;;4916745;28;20317;-73
2023/07/16 09:28:32;;;;;;;2.90;1.65;;;24.50;98.80;;;;;;4922360;29;20668;-70
2023/07/16 09:31:07;;;;;;;2.50;1.80;;;24.60;99.50;;;;;;4919458;28;20202;-74
2023/07/16 09:33:33;;;;;;;2.35;1.85;;;24.90;99.50;;;;;;4914802;28;20566;-70
2023/07/16 09:35:59;;;;;;;3.17;1.70;;;25.00;99.00;;;;;;4926191;28;20245;-68
2023/07/16 09:38:26;;;;;;;3.20;2.10;;;24.90;98.10;;;;;;4925941;28;20221;-74
2023/07/16 09:40:55;;;;;;;2.58;1.95;;;24.70;98.10;;;;;;4928933;28;20926;-72
2023/07/16 09:43:21;;;;;;;4.18;1.80;;;24.70;98.60;;;;;;4927339;29;20214;-72
2023/07/16 09:45:47;;;;;;;3.60;1.73;;;24.60;99.00;;;;;;4922705;28;20230;-72
2023/07/16 09:48:14;;;;;;;2.40;2.03;;;24.70;99.20;;;;;;4926871;29;20338;-72
2023/07/16 09:50:47;;;;;;;1.92;1.83;;;24.70;99.10;;;;;;4928429;28;20574;-72
2023/07/16 09:53:13;;;;;;;2.22;1.77;;;24.80;98.90;;;;;;4919753;28;20234;-73
2023/07/16 09:55:39;;;;;;;4.30;1.90;;;25.00;97.30;;;;;;4917128;28;20228;-73
2023/07/16 09:58:09;;;;;;;3.83;1.92;;;25.00;97.70;;;;;;4928044;28;20287;-73
2023/07/16 10:00:36;;;;;;;2.95;1.88;;;25.10;96.20;;;;;;4917808;28;20223;-73
2023/07/16 10:03:02;;;;;;;4.07;2.03;;;25.10;96.20;;;;;;4928540;28;20216;-72
2023/07/16 10:05:28;;;;;;;6.05;2.28;;;25.20;96.30;;;;;;4923303;29;20206;-76
2023/07/16 10:07:58;;;;;;;3.50;2.08;;;25.10;97.30;;;;;;4926164;28;20219;-70
2023/07/16 10:10:42;;;;;;;2.75;1.75;;;25.30;97.10;;;;;;4921017;29;20207;-73
2023/07/16 10:13:11;;;;;;;2.25;1.77;;;25.30;97.60;;;;;;4927883;28;20693;-70
2023/07/16 10:15:36;;;;;;;2.60;2.33;;;25.50;96.80;;;;;;4924867;28;20212;-72
2023/07/16 10:18:02;;;;;;;2.00;1.88;;;25.50;96.20;;;;;;4921986;28;20750;-71
2023/07/16 10:20:42;;;;;;;2.88;2.50;;;25.40;96.80;;;;;;4927347;28;20204;-69
2023/07/16 10:23:15;;;;;;;4.32;1.90;;;25.50;97.20;;;;;;4934745;28;20212;-73
2023/07/16 10:25:57;;;;;;;4.90;2.17;;;25.20;96.80;;;;;;4926318;28;20227;-70
2023/07/16 10:28:23;;;;;;;5.15;2.15;;;25.40;96.40;;;;;;4925619;28;20248;-73
2023/07/16 10:30:49;;;;;;;2.65;1.88;;;25.40;96.20;;;;;;4924195;28;20301;-73
2023/07/16 10:33:15;;;;;;;2.60;1.70;;;25.50;96.90;;;;;;4920518;29;20250;-74
2023/07/16 10:35:45;;;;;;;2.45;2.25;;;25.60;97.50;;;;;;4925800;29;20679;-73
2023/07/16 10:38:11;;;;;;;4.15;2.35;;;25.60;96.30;;;;;;4921553;28;20246;-72
2023/07/16 10:40:46;;;;;;;2.42;2.10;;;25.40;96.20;;;;;;4916598;28;20209;-72
2023/07/16 10:43:12;;;;;;;2.50;2.30;;;25.30;96.10;;;;;;4910305;28;20552;-72
2023/07/16 10:45:38;;;;;;;2.35;2.15;;;25.30;95.90;;;;;;4921652;29;20683;-72
2023/07/16 10:48:03;;;;;;;2.85;2.40;;;25.40;96.40;;;;;;4925301;29;20220;-72
2023/07/16 10:50:32;;;;;;;2.25;2.00;;;25.60;95.80;;;;;;4921188;29;20664;-71
2023/07/16 10:52:58;;;;;;;2.10;1.90;;;25.50;96.60;;;;;;4925394;28;20222;-72
2023/07/16 10:55:25;;;;;;;3.80;2.63;;;25.50;96.80;;;;;;4925175;29;20237;-70
2023/07/16 10:57:51;;;;;;;2.20;2.00;;;25.70;95.40;;;;;;4908638;29;20214;-70
2023/07/16 11:00:17;;;;;;;3.45;2.50;;;25.50;95.30;;;;;;4919645;28;20579;-68
2023/07/16 11:02:43;;;;;;;3.15;2.15;;;25.60;95.10;;;;;;4925750;29;20217;-70
2023/07/16 11:05:13;;;;;;;2.15;2.00;;;25.80;94.60;;;;;;4924255;28;20209;-72
2023/07/16 11:07:43;;;;;;;2.45;2.25;;;26.00;94.80;;;;;;4922617;29;20640;-71
2023/07/16 11:10:09;;;;;;;3.67;2.53;;;26.30;94.60;;;;;;4922444;28;20223;-70
2023/07/16 11:12:34;;;;;;;2.65;2.28;;;26.20;94.40;;;;;;4924437;28;20623;-70
2023/07/16 11:15:00;;;;;;;3.13;2.80;;;26.30;93.90;;;;;;4929295;29;20202;-70
2023/07/16 11:17:26;;;;;;;2.10;1.67;;;26.10;94.60;;;;;;4923694;29;20292;-71
2023/07/16 11:19:52;;;;;;;2.80;2.28;;;26.30;94.00;;;;;;4930645;28;20273;-72
2023/07/16 11:22:18;;;;;;;6.78;2.55;;;26.20;93.90;;;;;;4916025;28;20215;-70
2023/07/16 11:24:49;;;;;;;2.90;2.60;;;26.00;94.10;;;;;;4920788;28;20220;-72
2023/07/16 11:27:17;;;;;;;3.92;1.85;;;26.50;93.40;;;;;;4919436;28;20281;-72
2023/07/16 11:29:52;;;;;;;4.30;2.20;;;26.80;93.10;;;;;;4913950;28;20735;-73
2023/07/16 11:32:32;;;;;;;2.47;2.28;;;26.50;92.60;;;;;;4978819;28;20218;-73
2023/07/16 11:35:00;;;;;;;4.95;2.40;;;26.80;92.20;;;;;;4920445;28;20194;-73
2023/07/16 11:37:28;;;;;;;2.35;2.15;;;27.50;90.60;;;;;;4920276;28;20268;-72
2023/07/16 11:39:57;;;;;;;3.40;2.08;;;27.70;89.60;;;;;;4916651;28;20214;-73
2023/07/16 11:42:37;;;;;;;3.42;2.97;;;27.90;87.40;;;;;;4916701;28;20209;-73
2023/07/16 11:45:04;;;;;;;4.55;2.42;;;27.80;90.00;;;;;;4916026;28;20325;-73
2023/07/16 11:47:30;;;;;;;2.78;2.58;;;28.00;85.70;;;;;;4915877;28;20912;-72
2023/07/16 11:49:57;;;;;;;2.47;2.28;;;28.30;86.70;;;;;;4910850;28;20257;-73
2023/07/16 11:52:28;;;;;;;2.58;2.20;;;27.70;91.80;;;;;;4920862;28;20217;-74
2023/07/16 11:54:56;;;;;;;3.95;1.75;;;26.90;90.10;;;;;;4917679;28;20199;-73
2023/07/16 11:57:22;;;;;;;2.63;2.08;;;27.40;90.30;;;;;;4915926;28;20203;-69
2023/07/16 11:59:48;;;;;;;2.67;2.30;;;26.90;86.70;;;;;;4916695;28;20276;-70
2023/07/16 12:02:14;;;;;;;2.70;1.92;;;27.50;82.90;;;;;;4914716;28;20756;-70
2023/07/16 12:04:40;;;;;;;2.13;1.88;;;28.50;77.30;;;;;;4918521;29;20217;-70
2023/07/16 12:07:05;;;;;;;3.53;2.15;;;28.20;77.60;;;;;;4914702;29;20219;-75
2023/07/16 12:09:31;;;;;;;1.52;1.40;;;27.70;76.60;;;;;;4917521;29;20580;-73
2023/07/16 12:11:56;;;;;;;2.03;1.88;;;28.00;73.60;;;;;;4913097;29;20221;-73
2023/07/16 12:14:22;;;;;;;2.25;1.77;;;28.40;74.90;;;;;;4913381;29;20425;-73
2023/07/16 12:16:47;;;;;;;1.95;1.80;;;28.70;67.90;;;;;;4916692;28;20207;-77
2023/07/16 12:19:13;;;;;;;1.83;1.73;;;28.80;63.80;;;;;;4911172;29;20207;-69
2023/07/16 12:21:39;;;;;;;2.65;2.05;;;28.70;64.30;;;;;;4918584;29;20705;-71
2023/07/16 12:24:05;;;;;;;2.65;1.83;;;29.10;63.90;;;;;;4921970;28;20839;-71
2023/07/16 12:26:30;;;;;;;5.68;2.67;;;28.70;61.20;;;;;;4914778;28;20223;-71
2023/07/16 12:28:56;;;;;;;3.88;2.03;;;28.20;59.30;;;;;;4916965;28;20747;-67
2023/07/16 12:31:21;;;;;;;2.25;1.98;;;29.10;57.10;;;;;;4915267;28;20211;-69
2023/07/16 12:33:47;;;;;;;4.40;2.17;;;29.90;54.60;;;;;;4913620;28;20238;-72
2023/07/16 12:36:13;;;;;;;2.17;2.00;;;30.10;53.90;;;;;;4916060;28;20554;-72
2023/07/16 12:38:39;;;;;;;3.95;1.77;;;30.30;52.20;;;;;;4918968;28;20234;-77
2023/07/16 12:41:05;;;;;;;2.75;2.00;;;30.40;52.90;;;;;;4926796;29;20218;-74
2023/07/16 12:43:33;;;;;;;3.22;1.83;;;30.70;51.20;;;;;;4926865;28;20238;-68